Аэропорт: Пашковский. Краснодар

ICAO: URKK

METAR:
2019/05/26 14:00
URKK 261400Z 22011MPS 9999 SCT068CB 21/15 Q1014 R23L/CLRD70 TEMPO VRB10G17MPS 2000 TSRA BKN005 BKN020CB RMK QFE757
METAR:
2019/05/26 12:21
TAF URKK 261052Z 2612/2712 22009G14MPS 9999 BKN030CB 
      TEMPO 2612/2621 VRB12G18MPS 1000 TSRAGR BKN005 BKN020CB 
      TEMPO 2621/2712 23005G11MPS 3100 -SHRA SCT011 BKN020CB